Bill Berry (bbr) — WDB8998 — position and weather

sailwx.info

Track history (hours):
 
Tides and Currents Weather Stations Pressure Air Temp Water Temp Dewpoint Dewpoint Depression Visibility Wind Speed Wind Dir Waves Ship Positions

Bill Berry (bbr)

Owner: INGRAM BARGE COMPANY, Nashville, TN. More information available from US FCC via Universal Licensing System and Coast Guard Vessel Documentation Center.

Last reported at 2015-Sep-01 13:28 UTC. Time now 2015-Sep-03 08:54 UTC.
Position N 39°04' W 084°52'.

Length 41 m; draft 3.5 m.

Type: Towing. MMSI: 366967630.

Date/timePositionNaut miles runAvg speedWind from/ knotsBaromVisibWave heightAir tempDewpointWater temp
2015-Sep-01 13:28N 39°04' W 084°52'6 6.4
2015-Sep-01 12:32N 39°08' W 084°46'6 5.6
2015-Sep-01 11:33N 39°06' W 084°40'5 5.4
2015-Sep-01 10:33N 39°06' W 084°33'5 5.0
2015-Sep-01 09:32N 39°06' W 084°26'5 5.4
2015-Sep-01 08:33N 39°02' W 084°21'6 6.1
2015-Sep-01 07:32N 38°57' W 084°17'6 6.3
2015-Sep-01 06:33N 38°51' W 084°14'5 4.0
2015-Sep-01 05:25N 38°48' W 084°10'1 1.2
2015-Sep-01 04:33N 38°48' W 084°09'0 0.0
2015-Sep-01 03:33N 38°48' W 084°09'0 0.4
2015-Sep-01 02:33N 38°47' W 084°09'38 0.9
2015-Aug-30 09:32N 38°39' W 083°21'6 5.3
2015-Aug-30 08:23N 38°41' W 083°29'9 4.5
2015-Aug-30 06:24N 38°38' W 083°39'1 0.7
2015-Aug-30 05:16N 38°38' W 083°40'11 1.6
2015-Aug-29 22:30N 38°45' W 083°51'8 5.8
2015-Aug-29 21:04N 38°46' W 084°02'4 6.1
2015-Aug-29 20:29N 38°47' W 084°06'4 3.7
2015-Aug-29 19:32N 38°48' W 084°11'2 2.0
2015-Aug-29 18:28N 38°48' W 084°13'0 0.1
2015-Aug-29 17:32N 38°49' W 084°13'3 3.3
2015-Aug-29 16:33N 38°52' W 084°14'6 5.6
2015-Aug-29 15:33N 38°57' W 084°17'6 5.7
2015-Aug-29 14:33N 39°02' W 084°20'5 5.3
2015-Aug-29 13:33N 39°05' W 084°26'4 3.6
2015-Aug-29 12:33N 39°06' W 084°31'6 5.5
2015-Aug-29 11:33N 39°04' W 084°38'6 6.4
2015-Aug-29 10:32N 39°09' W 084°44'3 1.7
2015-Aug-29 08:33N 39°07' W 084°48'0 0.1
2015-Aug-29 07:32N 39°07' W 084°48'0 0.5
2015-Aug-29 06:33N 39°07' W 084°48'1 0.5
2015-Aug-29 05:31N 39°07' W 084°48'0 0.5
2015-Aug-29 04:32N 39°07' W 084°48'0 0.3
2015-Aug-29 03:32N 39°07' W 084°48'6 5.4
2015-Aug-29 02:30N 39°03' W 084°54'  
Track history (hours):
 
Tides and Currents Weather Stations Pressure Air Temp Water Temp Dewpoint Dewpoint Depression Visibility Wind Speed Wind Dir Waves Ship Positions

Bill Berry (bbr)

Owner: INGRAM BARGE COMPANY, Nashville, TN. More information available from US FCC via Universal Licensing System and Coast Guard Vessel Documentation Center.

Last reported at 2015-Sep-01 13:28 UTC. Time now 2015-Sep-03 08:54 UTC.
Position N 39°04' W 084°52'.

Length 41 m; draft 3.5 m.

Type: Towing. MMSI: 366967630.

Date/timePositionNaut miles runAvg speedWind from/ knotsBaromVisibWave heightAir tempDewpointWater temp
2015-Sep-01 13:28N 39°04' W 084°52'6 6.4
2015-Sep-01 12:32N 39°08' W 084°46'6 5.6
2015-Sep-01 11:33N 39°06' W 084°40'5 5.4
2015-Sep-01 10:33N 39°06' W 084°33'5 5.0
2015-Sep-01 09:32N 39°06' W 084°26'5 5.4
2015-Sep-01 08:33N 39°02' W 084°21'6 6.1
2015-Sep-01 07:32N 38°57' W 084°17'6 6.3
2015-Sep-01 06:33N 38°51' W 084°14'5 4.0
2015-Sep-01 05:25N 38°48' W 084°10'1 1.2
2015-Sep-01 04:33N 38°48' W 084°09'0 0.0
2015-Sep-01 03:33N 38°48' W 084°09'0 0.4
2015-Sep-01 02:33N 38°47' W 084°09'38 0.9
2015-Aug-30 09:32N 38°39' W 083°21'6 5.3
2015-Aug-30 08:23N 38°41' W 083°29'9 4.5
2015-Aug-30 06:24N 38°38' W 083°39'1 0.7
2015-Aug-30 05:16N 38°38' W 083°40'11 1.6
2015-Aug-29 22:30N 38°45' W 083°51'8 5.8
2015-Aug-29 21:04N 38°46' W 084°02'4 6.1
2015-Aug-29 20:29N 38°47' W 084°06'4 3.7
2015-Aug-29 19:32N 38°48' W 084°11'2 2.0
2015-Aug-29 18:28N 38°48' W 084°13'0 0.1
2015-Aug-29 17:32N 38°49' W 084°13'3 3.3
2015-Aug-29 16:33N 38°52' W 084°14'6 5.6
2015-Aug-29 15:33N 38°57' W 084°17'6 5.7
2015-Aug-29 14:33N 39°02' W 084°20'5 5.3
2015-Aug-29 13:33N 39°05' W 084°26'4 3.6
2015-Aug-29 12:33N 39°06' W 084°31'6 5.5
2015-Aug-29 11:33N 39°04' W 084°38'6 6.4
2015-Aug-29 10:32N 39°09' W 084°44'3 1.7
2015-Aug-29 08:33N 39°07' W 084°48'0 0.1
2015-Aug-29 07:32N 39°07' W 084°48'0 0.5
2015-Aug-29 06:33N 39°07' W 084°48'1 0.5
2015-Aug-29 05:31N 39°07' W 084°48'0 0.5
2015-Aug-29 04:32N 39°07' W 084°48'0 0.3
2015-Aug-29 03:32N 39°07' W 084°48'6 5.4
2015-Aug-29 02:30N 39°03' W 084°54'  

Dump ship's entire track history